ADDS METAR Data INFO
IDs: Format: Raw Decoded Include TAF

Data at: 0031 UTC 23 Oct 2017

KTNU 230015Z AUTO 16007KT 10SM CLR 10/07 A3005 RMK AO2 PWINO
KTNU 222355Z AUTO 15007KT 10SM CLR 11/07 A3005 RMK AO2 PWINO
KTNU 222335Z AUTO 17006KT 10SM CLR 11/07 A3005 RMK AO2 PWINO
KTNU 222315Z AUTO 15006KT 10SM CLR 13/08 A3004 RMK AO2 PWINO
KTNU 222255Z AUTO 16007KT 10SM CLR 15/06 A3005 RMK AO2 PWINO
KTNU 222235Z AUTO 17005KT 10SM CLR 15/05 A3005 RMK AO2 PWINO
KTNU 222215Z AUTO 16004KT 10SM CLR 15/06 A3005 RMK AO2 PWINO
KTNU 222155Z AUTO 17003KT 10SM CLR 16/06 A3005 RMK AO2 PWINO
KTNU 222135Z AUTO 00000KT 10SM CLR 16/03 A3005 RMK AO2 PWINO
KTNU 222115Z AUTO 00000KT 10SM CLR 16/04 A3005 RMK AO2 PWINO
KTNU 222055Z AUTO 32003KT 10SM CLR 16/02 A3005 RMK AO2 PWINO
KTNU 222035Z AUTO 32005KT 10SM CLR 16/03 A3005 RMK AO2 PWINO
KTNU 222015Z AUTO 30006KT 10SM CLR 16/04 A3005 RMK AO2 PWINO
KTNU 221955Z AUTO 32006KT 10SM CLR 16/04 A3005 RMK AO2 PWINO
KTNU 221935Z AUTO 30006KT 10SM CLR 16/06 A3006 RMK AO2 PWINO
KTNU 221915Z AUTO 33005KT 10SM CLR 15/06 A3006 RMK AO2 PWINO
KTNU 221855Z AUTO 31006KT 10SM CLR 15/06 A3007 RMK AO2 PWINO
KTNU 221835Z AUTO 30008KT 10SM CLR 15/06 A3007 RMK AO2 PWINO
KTNU 221815Z AUTO 32010KT 10SM CLR 14/06 A3007 RMK AO2 PWINO
KTNU 221755Z AUTO 32010KT 10SM CLR 15/06 A3007 RMK AO2 PWINO
KTNU 221735Z AUTO 31008KT 10SM CLR 14/07 A3007 RMK AO2 PWINO
KTNU 221715Z AUTO 32008KT 10SM CLR 12/08 A3007 RMK AO2 PWINO
KTNU 221655Z AUTO 32006KT 10SM FEW120 12/08 A3008 RMK AO2 PWINO
KTNU 221635Z AUTO 32008KT 10SM FEW120 11/07 A3007 RMK AO2 PWINO
KTNU 221615Z AUTO 31009KT 10SM CLR 11/07 A3007 RMK AO2 PWINO
KTNU 221555Z AUTO 31009KT 10SM FEW120 11/07 A3007 RMK AO2 PWINO
KTNU 221535Z AUTO 31009KT 10SM FEW120 10/08 A3006 RMK AO2 PWINO
KTNU 221515Z AUTO 31009KT 10SM CLR 10/08 A3005 RMK AO2 PWINO
KTNU 221455Z AUTO 29010KT 10SM CLR 10/08 A3006 RMK AO2 PWINO
KTNU 221435Z AUTO 30006KT 10SM CLR 10/08 A3004 RMK AO2 PWINO
KTNU 221415Z AUTO 31006KT 10SM FEW100 10/08 A3004 RMK AO2 PWINO
KTNU 221355Z AUTO 31007KT 10SM BKN110 10/08 A3003 RMK AO2 PWINO
KTNU 221335Z AUTO 30008KT 10SM OVC110 10/08 A3004 RMK AO2 PWINO
KTNU 221315Z AUTO 32006KT 10SM FEW065 SCT075 OVC100 10/08 A3002 RMK AO2 PWINO
KTNU 221255Z AUTO 31006KT 10SM SCT065 OVC075 10/08 A3001 RMK AO2 PWINO
KTNU 221235Z AUTO 31007KT 10SM SCT065 OVC070 10/08 A3000 RMK AO2 PWINO
KTNU 221215Z AUTO 29007KT 10SM FEW055 OVC070 10/08 A3000 RMK AO2 PWINO
KTNU 221155Z AUTO 30004KT 10SM FEW055 OVC070 10/09 A2999 RMK AO2 PWINO
KTNU 221135Z AUTO 29005KT 10SM BKN060 OVC075 10/09 A2999 RMK AO2 PWINO
KTNU 221115Z AUTO 27005KT 10SM BKN060 BKN075 OVC090 10/09 A2999 RMK AO2 PWINO
KTNU 221055Z AUTO 00000KT 10SM BKN055 OVC065 10/09 A2998 RMK AO2 P0001 PWINO
KTNU 221035Z AUTO 00000KT 10SM BKN055 OVC065 10/09 A2999 RMK AO2 PWINO
KTNU 221015Z AUTO 00000KT 10SM FEW055 OVC065 10/09 A2998 RMK AO2 PWINO
KTNU 220955Z AUTO 00000KT 10SM SCT055 OVC065 10/09 A2998 RMK AO2 P0001 PWINO
KTNU 220935Z AUTO 30005KT 10SM FEW044 BKN055 OVC070 10/09 A2998 RMK AO2 PWINO
KTNU 220915Z AUTO 31004KT 10SM FEW041 SCT046 OVC070 10/09 A2997 RMK AO2 PWINO
KTNU 220855Z AUTO 32006KT 10SM SCT050 SCT060 OVC070 10/09 A2996 RMK AO2 P0001 PWINO
KTNU 220835Z AUTO 34004KT 10SM SCT050 BKN060 OVC070 10/08 A2996 RMK AO2 PWINO
KTNU 220815Z AUTO 35004KT 10SM FEW048 OVC070 10/09 A2995 RMK AO2 PWINO
KTNU 220755Z AUTO 33007KT 10SM FEW048 BKN060 OVC075 10/09 A2995 RMK AO2 PWINO
KTNU 220735Z AUTO 32009KT 10SM FEW055 BKN070 OVC100 10/09 A2995 RMK AO2 PWINO
KTNU 220715Z AUTO 33006KT 10SM FEW055 SCT070 OVC100 10/09 A2996 RMK AO2 PWINO
KTNU 220655Z AUTO 32009KT 10SM FEW034 SCT040 OVC070 11/09 A2995 RMK AO2 P0002 PWINO
KTNU 220635Z AUTO 33009KT 10SM FEW036 BKN070 OVC095 11/09 A2995 RMK AO2 PWINO
KTNU 220615Z AUTO 34007KT 9SM SCT050 SCT070 OVC095 11/09 A2993 RMK AO2 PWINO
KTNU 220555Z AUTO 32009KT 9SM OVC050 11/10 A2993 RMK AO2 P0003 PWINO
KTNU 220535Z AUTO 32010KT 7SM FEW030 SCT046 BKN065 11/10 A2993 RMK AO2 PWINO
KTNU 220515Z AUTO 31010KT 9SM FEW011 SCT075 OVC100 12/10 A2992 RMK AO2 PWINO
KTNU 220455Z AUTO 31014KT 6SM BR SCT008 BKN075 OVC100 12/11 A2991 RMK AO2 P0014 PWINO
KTNU 220435Z AUTO 31014KT 6SM BR FEW034 OVC100 12/11 A2989 RMK AO2 PWINO
KTNU 220415Z AUTO 31014G21KT 4SM BR BKN027 BKN035 OVC100 12/12 A2990 RMK AO2 PWINO
KTNU 220355Z AUTO 28011G17KT 4SM BR BKN027 OVC031 13/12 A2993 RMK AO2 P0020 PWINO
KTNU 220335Z AUTO 31010G17KT 5SM BR OVC031 13/12 A2989 RMK AO2 PWINO
KTNU 220315Z AUTO 30012KT 6SM BR OVC031 13/12 A2989 RMK AO2 PWINO
KTNU 220255Z AUTO 32012KT 6SM BR FEW005 BKN028 OVC033 14/13 A2986 RMK AO2 P0017 PWINO
KTNU 220235Z AUTO 29012KT 5SM BR SCT007 BKN024 OVC030 15/14 A2986 RMK AO2 PWINO
KTNU 220215Z AUTO 26007G12KT 5SM BR FEW003 SCT009 BKN014 17/16 A2983 RMK AO2 PWINO
KTNU 220155Z AUTO 17010KT 1 1/4SM BR BKN003 BKN015 OVC031 17/16 A2984 RMK AO2 P0038 PWINO
KTNU 220135Z AUTO 24018G26KT 7SM FEW015 BKN034 OVC042 20/18 A2983 RMK AO2 PWINO
KTNU 220115Z AUTO 18010KT 9SM FEW004 BKN040 OVC070 20/18 A2978 RMK AO2 PWINO
KTNU 220055Z AUTO 17014KT 6SM BR SCT003 BKN035 OVC100 19/18 A2978 RMK AO2 P0036 PWINO
KTNU 220035Z AUTO 18021KT 1 1/2SM BR BKN003 BKN026 OVC040 19/18 A2978 RMK AO2 PWINO
KTNU 220015Z AUTO 22008KT 4SM HZ FEW003 BKN040 OVC065 20/18 A2980 RMK AO2 PWINO
KTNU 212355Z AUTO 17011KT 10SM SCT047 SCT055 OVC065 21/17 A2978 RMK AO2 PWINO
KTNU 212335Z AUTO 17012KT 10SM OVC046 21/17 A2978 RMK AO2 PWINO
KTNU 212315Z AUTO 17011KT 10SM BKN047 BKN060 OVC070 22/17 A2979 RMK AO2 PWINO
KTNU 212255Z AUTO 17011KT 10SM FEW060 OVC070 22/17 A2980 RMK AO2 PWINO
KTNU 212235Z AUTO 19015KT 10SM OVC075 23/16 A2979 RMK AO2 PWINO
KTNU 212215Z AUTO 19017G27KT 10SM BKN075 23/16 A2978 RMK AO2 PWINO
KTNU 212155Z AUTO 18020G27KT 10SM BKN070 24/16 A2977 RMK AO2 PWINO
KTNU 212135Z AUTO 17018KT 10SM OVC070 23/16 A2977 RMK AO2 PWINO
KTNU 212115Z AUTO 18017G22KT 10SM OVC070 23/16 A2979 RMK AO2 PWINO
KTNU 212055Z AUTO 19019G24KT 10SM OVC065 23/16 A2979 RMK AO2 PWINO
KTNU 212035Z AUTO 19015G23KT 10SM OVC060 23/16 A2980 RMK AO2 PWINO
KTNU 212015Z AUTO 19019KT 10SM FEW042 BKN050 OVC055 22/16 A2980 RMK AO2 PWINO
KTNU 211955Z AUTO 18016KT 10SM FEW034 BKN041 OVC048 22/16 A2981 RMK AO2 PWINO
KTNU 211935Z AUTO 20011G16KT 10SM OVC036 21/16 A2982 RMK AO2 PWINO
KTNU 211915Z AUTO 20012G22KT 10SM OVC035 21/16 A2982 RMK AO2 PWINO
KTNU 211855Z AUTO 20016G22KT 10SM OVC030 21/15 A2981 RMK AO2 PWINO
KTNU 211835Z AUTO 21016G25KT 10SM OVC031 22/15 A2981 RMK AO2 PWINO
KTNU 211815Z AUTO 20014G24KT 10SM OVC030 22/15 A2981 RMK AO2 PWINO
KTNU 211755Z AUTO 20014G22KT 10SM OVC031 22/15 A2981 RMK AO2 PWINO
KTNU 211735Z AUTO 19021G29KT 10SM OVC031 22/15 A2981 RMK AO2 PWINO
KTNU 211715Z AUTO 20019G26KT 10SM BKN032 22/15 A2981 RMK AO2 PWINO
KTNU 211655Z AUTO 19020G30KT 10SM BKN030 BKN034 23/15 A2980 RMK AO2 PWINO
KTNU 211635Z AUTO 19016G29KT 10SM BKN030 22/14 A2981 RMK AO2 PWINO
KTNU 211615Z AUTO 19016G27KT 10SM SCT029 22/14 A2980 RMK AO2 PWINO
KTNU 211555Z AUTO 18018G27KT 10SM BKN027 21/14 A2980 RMK AO2 PWINO
KTNU 211535Z AUTO 18020G27KT 10SM OVC025 20/14 A2980 RMK AO2 PWINO
KTNU 211515Z AUTO 18023G30KT 10SM OVC026 19/14 A2981 RMK AO2 PWINO
KTNU 211455Z AUTO 18020G26KT 10SM OVC026 19/14 A2982 RMK AO2 PWINO
KTNU 211435Z AUTO 17020G25KT 10SM OVC024 19/14 A2982 RMK AO2 PWINO
KTNU 211415Z AUTO 17020G26KT 10SM OVC023 18/14 A2982 RMK AO2 PWINO
KTNU 211355Z AUTO 18017G24KT 10SM OVC023 18/14 A2983 RMK AO2 PWINO
KTNU 211335Z AUTO 18012G22KT 10SM OVC023 18/14 A2983 RMK AO2 PWINO
KTNU 211315Z AUTO 18013G20KT 10SM OVC023 18/14 A2983 RMK AO2 PWINO
KTNU 211255Z AUTO 18015G22KT 10SM OVC022 18/14 A2982 RMK AO2 PWINO
KTNU 211235Z AUTO 18019KT 10SM OVC024 18/13 A2982 RMK AO2 PWINO